CheckWX is a tool to help pilots better visualize weather data.  It is not intended as a substitute for an official pre-flight weather briefing.

13:20:43 UTC

VTUO METAR
Buri Ram Airport
Thailand
Current

21 mins ago

VTUO 191300Z 04010KT 9000 NSC 25/21 Q1014 NOSIG
Observed
Nov-19 @ 13:00 UTC
Wind
  • 040° at 10 KTS
Visibility
9,000 meters
Flight Rules
VFR
Cloud Levels
  • Clear skies
Temperature
25°C / 77°F
Dewpoint
21°C / 70°F
Humidity
79%
Altimeter
29.94" Hg
Pressure
1013.92 hPa
Previous

1 hour ago

VTUO 191200Z 04010KT 9000 NSC 27/21 Q1014 NOSIG
Observed
Nov-19 @ 12:00 UTC
Wind
  • 040° at 10 KTS
Visibility
9,000 meters
Flight Rules
VFR
Cloud Levels
  • Clear skies
Temperature
27°C / 81°F
Dewpoint
21°C / 70°F
Heat Index
29°C / 85°F
Humidity
70%
Altimeter
29.94" Hg
Pressure
1013.92 hPa
Previous

2 hours ago

VTUO 191100Z 04005KT 020V080 9000 NSC 26/19 Q1013 NOSIG
Observed
Nov-19 @ 11:00 UTC
Wind
  • 040° at 5 KTS
Visibility
9,000 meters
Flight Rules
VFR
Cloud Levels
  • Clear skies
Temperature
26°C / 79°F
Dewpoint
19°C / 66°F
Humidity
65%
Altimeter
29.91" Hg
Pressure
1012.92 hPa